createdAt,value
2019-02-24T00:01:59.499Z,22.99
2019-02-24T00:04:28.308Z,22.96
2019-02-24T00:06:56.556Z,22.95
2019-02-24T00:09:25.925Z,22.96
2019-02-24T00:11:54.397Z,22.94
2019-02-24T00:14:23.363Z,22.92
2019-02-24T00:16:52.170Z,22.91
2019-02-24T00:19:20.983Z,22.89
2019-02-24T00:21:49.336Z,22.86
2019-02-24T00:24:18.636Z,22.86
2019-02-24T00:26:47.728Z,22.83
2019-02-24T00:29:16.647Z,22.82
2019-02-24T00:31:45.671Z,22.83
2019-02-24T00:34:15.040Z,22.82
2019-02-24T00:36:44.430Z,22.83
2019-02-24T00:39:13.749Z,22.82
2019-02-24T00:41:42.371Z,22.79
2019-02-24T00:44:11.115Z,22.79
2019-02-24T00:46:39.784Z,22.82
2019-02-24T00:49:08.595Z,22.82
2019-02-24T00:51:36.546Z,22.76
2019-02-24T00:54:05.436Z,22.72
2019-02-24T00:56:34.017Z,22.75
2019-02-24T00:59:02.758Z,22.74
2019-02-24T01:01:31.119Z,22.72
2019-02-24T01:03:59.406Z,22.73
2019-02-24T01:06:28.034Z,22.70
2019-02-24T01:08:56.344Z,22.71
2019-02-24T01:11:24.690Z,22.69
2019-02-24T01:13:54.011Z,22.69
2019-02-24T01:16:23.187Z,22.71
2019-02-24T01:18:53.169Z,22.71
2019-02-24T01:21:21.582Z,22.72
2019-02-24T01:23:49.214Z,22.68
2019-02-24T01:26:17.763Z,22.69
2019-02-24T01:28:46.309Z,22.63
2019-02-24T01:31:14.482Z,22.65
2019-02-24T01:33:44.306Z,22.65
2019-02-24T01:36:12.937Z,22.65
2019-02-24T01:38:41.511Z,22.61
2019-02-24T01:41:10.892Z,22.62
2019-02-24T01:43:39.199Z,22.59
2019-02-24T01:46:08.684Z,22.57
2019-02-24T01:48:36.791Z,22.59
2019-02-24T01:51:05.277Z,22.49
2019-02-24T01:53:33.876Z,22.49
2019-02-24T01:56:02.640Z,22.60
2019-02-24T01:58:35.187Z,22.60
2019-02-24T02:01:01.141Z,22.57
2019-02-24T02:03:31.596Z,22.55
2019-02-24T02:06:00.392Z,22.55
2019-02-24T02:08:28.435Z,22.55
2019-02-24T02:10:56.828Z,22.55
2019-02-24T02:13:25.746Z,22.54
2019-02-24T02:15:53.734Z,22.47
2019-02-24T02:18:21.861Z,22.47
2019-02-24T02:20:49.588Z,22.46
2019-02-24T02:23:17.844Z,22.49
2019-02-24T02:25:47.035Z,22.47
2019-02-24T02:28:15.752Z,22.47
2019-02-24T02:30:44.870Z,22.45
2019-02-24T02:33:13.164Z,22.47
2019-02-24T02:35:41.773Z,22.46
2019-02-24T02:38:10.473Z,22.36
2019-02-24T02:40:43.912Z,22.36
2019-02-24T02:43:12.753Z,22.42
2019-02-24T02:45:40.773Z,22.43
2019-02-24T02:48:08.938Z,22.41
2019-02-24T02:50:37.000Z,22.34
2019-02-24T02:53:05.334Z,22.33
2019-02-24T02:55:33.368Z,22.34
2019-02-24T02:58:01.833Z,22.21
2019-02-24T03:00:32.496Z,22.21
2019-02-24T03:03:00.794Z,22.30
2019-02-24T03:05:29.292Z,22.29
2019-02-24T03:08:03.405Z,22.29
2019-02-24T03:10:31.522Z,22.26
2019-02-24T03:13:00.860Z,22.34
2019-02-24T03:16:28.904Z,22.35
2019-02-24T03:18:56.341Z,22.29
2019-02-24T03:21:23.561Z,22.26
2019-02-24T03:25:10.648Z,22.30
2019-02-24T03:27:37.860Z,22.27
2019-02-24T03:30:05.298Z,22.27
2019-02-24T03:32:32.553Z,22.26
2019-02-24T03:35:00.057Z,22.24
2019-02-24T03:37:27.529Z,22.26
2019-02-24T03:39:55.384Z,22.24
2019-02-24T03:42:23.133Z,22.21
2019-02-24T03:44:50.634Z,22.23
2019-02-24T03:47:19.076Z,22.15
2019-02-24T03:49:48.377Z,22.15
2019-02-24T03:52:16.750Z,22.15
2019-02-24T03:54:45.236Z,22.15
2019-02-24T03:57:13.409Z,22.15
2019-02-24T03:59:41.990Z,22.18
2019-02-24T04:02:10.679Z,22.17
2019-02-24T04:04:39.201Z,22.17
2019-02-24T04:07:07.517Z,22.17
2019-02-24T04:09:35.919Z,22.18
2019-02-24T04:12:03.718Z,22.19
2019-02-24T04:14:31.483Z,22.14
2019-02-24T04:16:59.589Z,22.15
2019-02-24T04:19:27.883Z,22.11
2019-02-24T04:22:15.123Z,22.16
2019-02-24T04:24:42.817Z,22.11
2019-02-24T04:27:11.745Z,22.07
2019-02-24T04:29:40.744Z,22.08
2019-02-24T04:32:08.689Z,22.10
2019-02-24T04:34:36.470Z,22.10
2019-02-24T04:37:04.151Z,22.10
2019-02-24T04:39:31.362Z,22.06
2019-02-24T04:41:58.575Z,22.06
2019-02-24T04:44:26.290Z,22.08
2019-02-24T04:46:53.512Z,22.08
2019-02-24T04:49:21.108Z,22.05
2019-02-24T04:51:48.853Z,22.07
2019-02-24T04:54:16.076Z,22.11
2019-02-24T04:56:43.299Z,22.11
2019-02-24T04:59:11.127Z,22.09
2019-02-24T05:01:39.173Z,22.14
2019-02-24T05:04:06.841Z,22.10
2019-02-24T05:06:34.622Z,22.13
2019-02-24T05:09:02.214Z,22.11
2019-02-24T05:11:29.876Z,22.10
2019-02-24T05:13:57.735Z,22.11
2019-02-24T05:16:25.263Z,22.13
2019-02-24T05:18:52.848Z,22.12
2019-02-24T05:21:20.525Z,22.10
2019-02-24T05:23:48.162Z,22.14
2019-02-24T05:26:15.505Z,22.10
2019-02-24T05:28:42.880Z,22.13
2019-02-24T05:31:11.028Z,22.16
2019-02-24T05:33:38.357Z,22.12
2019-02-24T05:36:05.555Z,22.16
2019-02-24T05:38:53.287Z,22.13
2019-02-24T05:41:20.410Z,22.10
2019-02-24T05:43:48.026Z,22.07
2019-02-24T05:46:15.835Z,22.07
2019-02-24T05:48:43.189Z,22.08
2019-02-24T05:51:10.326Z,22.07
2019-02-24T05:53:37.673Z,22.10
2019-02-24T05:56:05.282Z,22.11
2019-02-24T05:58:33.334Z,22.10
2019-02-24T06:01:02.480Z,22.07
2019-02-24T06:03:30.076Z,22.06
2019-02-24T06:05:57.526Z,22.06
2019-02-24T06:08:24.666Z,22.05
2019-02-24T06:10:52.158Z,22.03
2019-02-24T06:13:19.916Z,22.02
2019-02-24T06:15:47.378Z,22.00
2019-02-24T06:18:15.114Z,21.99
2019-02-24T06:20:42.221Z,22.01
2019-02-24T06:23:09.659Z,22.00
2019-02-24T06:25:37.188Z,22.00
2019-02-24T06:28:04.354Z,22.00
2019-02-24T06:30:31.800Z,22.00
2019-02-24T06:32:59.206Z,21.97
2019-02-24T06:35:26.350Z,21.98
2019-02-24T06:37:53.475Z,22.01
2019-02-24T06:40:20.919Z,22.00
2019-02-24T06:42:48.660Z,22.03
2019-02-24T06:45:16.092Z,22.03
2019-02-24T06:47:43.215Z,22.03
2019-02-24T06:50:10.683Z,22.00
2019-02-24T06:52:38.437Z,22.01
2019-02-24T06:55:06.054Z,22.00
2019-02-24T06:57:34.117Z,22.02
2019-02-24T07:00:02.060Z,22.04
2019-02-24T07:02:29.738Z,22.09
2019-02-24T07:04:57.180Z,22.09
2019-02-24T07:07:24.661Z,22.06
2019-02-24T07:09:52.225Z,22.07
2019-02-24T07:12:19.983Z,22.04
2019-02-24T07:14:47.104Z,22.07
2019-02-24T07:17:14.517Z,22.07
2019-02-24T07:19:41.908Z,22.12
2019-02-24T07:22:09.314Z,22.07
2019-02-24T07:24:37.044Z,22.07
2019-02-24T07:27:04.770Z,22.20
2019-02-24T07:29:32.442Z,22.21
2019-02-24T07:31:59.796Z,22.28
2019-02-24T07:34:27.207Z,22.48
2019-02-24T07:36:54.398Z,22.48
2019-02-24T07:39:21.618Z,22.52
2019-02-24T07:41:48.972Z,22.53
2019-02-24T07:44:16.183Z,22.59
2019-02-24T07:46:43.297Z,22.61
2019-02-24T07:49:10.946Z,22.70
2019-02-24T07:51:38.304Z,22.69
2019-02-24T07:54:05.666Z,22.75
2019-02-24T07:56:33.043Z,22.84
2019-02-24T07:59:00.928Z,22.90
2019-02-24T08:01:28.211Z,22.88
2019-02-24T08:03:55.853Z,22.91
2019-02-24T08:06:22.962Z,22.95
2019-02-24T08:08:50.590Z,22.95
2019-02-24T08:11:17.913Z,23.01
2019-02-24T08:13:45.380Z,23.03
2019-02-24T08:16:13.003Z,23.10
2019-02-24T08:18:49.033Z,23.11
2019-02-24T08:21:09.760Z,23.19
2019-02-24T08:23:37.215Z,23.17
2019-02-24T08:26:04.711Z,23.26
2019-02-24T08:28:32.349Z,23.34
2019-02-24T08:30:59.715Z,23.37
2019-02-24T08:33:27.105Z,23.43
2019-02-24T08:35:54.646Z,23.51
2019-02-24T08:38:22.107Z,23.51
2019-02-24T08:40:49.452Z,23.57
2019-02-24T08:43:16.680Z,23.56
2019-02-24T08:45:44.116Z,23.59
2019-02-24T08:48:11.746Z,23.59
2019-02-24T08:50:39.152Z,23.60
2019-02-24T08:53:06.384Z,23.64
2019-02-24T08:55:33.512Z,23.66
2019-02-24T08:58:00.902Z,23.75
2019-02-24T09:00:28.286Z,23.76
2019-02-24T09:02:56.009Z,23.76
2019-02-24T09:08:05.574Z,23.82
2019-02-24T09:10:33.282Z,23.81
2019-02-24T09:13:00.765Z,23.86
2019-02-24T09:15:28.464Z,23.89
2019-02-24T09:17:55.775Z,23.94
2019-02-24T09:20:23.264Z,23.93
2019-02-24T09:22:50.669Z,23.94
2019-02-24T09:25:18.072Z,23.94
2019-02-24T09:27:45.843Z,24.00
2019-02-24T09:30:13.037Z,24.03
2019-02-24T09:32:40.507Z,24.03
2019-02-24T09:35:08.254Z,24.06
2019-02-24T09:37:36.158Z,24.10
2019-02-24T09:40:04.455Z,24.14
2019-02-24T09:42:31.908Z,24.12
2019-02-24T09:44:59.318Z,24.14
2019-02-24T09:47:26.728Z,24.17
2019-02-24T09:49:54.146Z,24.19
2019-02-24T09:52:21.601Z,24.12
2019-02-24T09:54:48.783Z,24.07
2019-02-24T09:57:16.225Z,24.07
2019-02-24T09:59:43.863Z,24.09
2019-02-24T10:02:11.233Z,24.03
2019-02-24T10:04:38.612Z,24.03
2019-02-24T10:07:05.973Z,24.15
2019-02-24T10:09:33.122Z,24.18
2019-02-24T10:12:00.442Z,24.23
2019-02-24T10:14:27.812Z,24.26
2019-02-24T10:16:55.453Z,24.28
2019-02-24T10:19:22.580Z,24.24
2019-02-24T10:21:50.197Z,24.28
2019-02-24T10:24:17.716Z,24.34
2019-02-24T10:26:45.053Z,24.33
2019-02-24T10:29:12.440Z,24.37
2019-02-24T10:31:40.156Z,24.40
2019-02-24T10:34:07.786Z,24.41
2019-02-24T10:36:35.012Z,24.44
2019-02-24T10:39:03.034Z,24.45
2019-02-24T10:41:30.441Z,24.49
2019-02-24T10:43:57.835Z,24.46
2019-02-24T10:46:25.381Z,24.43
2019-02-24T10:48:52.888Z,24.43
2019-02-24T10:51:20.394Z,24.54
2019-02-24T10:53:47.914Z,24.47
2019-02-24T10:56:15.335Z,24.38
2019-02-24T10:58:42.496Z,24.37
2019-02-24T11:01:09.908Z,24.35
2019-02-24T11:03:37.650Z,24.31
2019-02-24T11:06:05.057Z,24.32
2019-02-24T11:08:32.911Z,24.31
2019-02-24T11:11:00.599Z,24.31
2019-02-24T11:13:28.144Z,24.25
2019-02-24T11:15:55.538Z,24.22
2019-02-24T11:18:23.124Z,24.25
2019-02-24T11:20:50.256Z,24.25
2019-02-24T11:23:17.400Z,24.22
2019-02-24T11:25:44.524Z,24.17
2019-02-24T11:28:11.929Z,24.15
2019-02-24T11:30:39.170Z,24.14
2019-02-24T11:33:06.311Z,24.09
2019-02-24T11:35:33.565Z,23.90
2019-02-24T11:39:55.090Z,24.04
2019-02-24T11:42:22.837Z,23.94
2019-02-24T11:44:49.993Z,23.90
2019-02-24T11:47:18.379Z,23.89
2019-02-24T11:49:45.846Z,23.89
2019-02-24T11:52:13.893Z,24.03
2019-02-24T11:54:41.015Z,24.08
2019-02-24T11:57:08.251Z,24.15
2019-02-24T11:59:36.172Z,24.15
2019-02-24T12:02:03.434Z,24.15
2019-02-24T12:04:30.862Z,24.11
2019-02-24T12:06:57.976Z,24.06
2019-02-24T12:09:25.646Z,24.08
2019-02-24T12:11:53.521Z,24.11
2019-02-24T12:14:20.948Z,23.91
2019-02-24T12:16:48.402Z,23.80
2019-02-24T12:19:18.281Z,23.43
2019-02-24T12:21:46.325Z,23.59
2019-02-24T12:24:14.013Z,23.56
2019-02-24T12:26:42.182Z,23.57
2019-02-24T12:29:09.834Z,23.55
2019-02-24T12:31:37.575Z,23.57
2019-02-24T12:34:05.683Z,23.56
2019-02-24T12:36:33.659Z,23.54
2019-02-24T12:39:01.218Z,23.55
2019-02-24T12:43:50.861Z,23.59
2019-02-24T12:46:18.015Z,23.57
2019-02-24T12:48:45.238Z,23.57
2019-02-24T12:51:12.405Z,23.57
2019-02-24T12:53:39.574Z,23.57
2019-02-24T12:56:07.678Z,23.58
2019-02-24T12:58:35.919Z,23.58
2019-02-24T13:01:03.786Z,23.58
2019-02-24T13:03:31.268Z,23.59
2019-02-24T13:05:58.532Z,23.61
2019-02-24T13:08:26.266Z,23.60
2019-02-24T13:10:54.369Z,23.62
2019-02-24T13:13:22.322Z,23.61
2019-02-24T13:15:50.067Z,23.60
2019-02-24T13:18:17.538Z,23.61
2019-02-24T13:20:45.134Z,23.64
2019-02-24T13:23:12.547Z,23.64
2019-02-24T13:25:39.674Z,23.68
2019-02-24T13:28:06.975Z,23.69
2019-02-24T13:30:36.102Z,23.72
2019-02-24T13:33:03.365Z,23.72
2019-02-24T13:35:30.538Z,23.75
2019-02-24T13:37:57.672Z,23.74
2019-02-24T13:40:25.104Z,23.77
2019-02-24T13:42:52.611Z,23.77
2019-02-24T13:45:20.070Z,23.78
2019-02-24T13:47:47.527Z,23.79
2019-02-24T13:50:15.020Z,23.78
2019-02-24T13:52:42.262Z,23.79
2019-02-24T13:55:09.978Z,23.80
2019-02-24T13:57:37.439Z,23.80
2019-02-24T14:00:07.303Z,23.77
2019-02-24T14:02:34.826Z,23.78
2019-02-24T14:05:21.841Z,23.80
2019-02-24T14:07:49.735Z,23.82
2019-02-24T14:10:17.254Z,23.84
2019-02-24T14:12:44.717Z,24.00
2019-02-24T14:15:12.162Z,24.13
2019-02-24T14:17:40.053Z,24.19
2019-02-24T14:20:09.216Z,24.18
2019-02-24T14:22:37.088Z,24.19
2019-02-24T14:25:04.747Z,24.23
2019-02-24T14:27:31.980Z,24.16
2019-02-24T14:29:59.639Z,24.08
2019-02-24T14:32:33.057Z,24.06
2019-02-24T14:34:57.354Z,23.98
2019-02-24T14:37:25.424Z,23.98
2019-02-24T14:39:53.184Z,23.90
2019-02-24T14:42:20.648Z,23.77
2019-02-24T14:44:47.853Z,23.60
2019-02-24T14:47:15.565Z,23.44
2019-02-24T14:49:42.727Z,23.35
2019-02-24T14:52:10.139Z,23.31
2019-02-24T14:54:37.612Z,23.30
2019-02-24T14:57:04.840Z,23.30
2019-02-24T14:59:32.430Z,23.35
2019-02-24T15:02:00.142Z,23.35
2019-02-24T15:04:27.953Z,23.35
2019-02-24T15:06:55.930Z,23.32
2019-02-24T15:09:23.482Z,23.35
2019-02-24T15:11:51.363Z,23.32
2019-02-24T15:14:18.537Z,23.32
2019-02-24T15:16:45.845Z,23.36
2019-02-24T15:19:13.054Z,23.36
2019-02-24T15:21:40.545Z,23.36
2019-02-24T15:24:07.782Z,23.37
2019-02-24T15:26:34.982Z,23.50
2019-02-24T15:29:02.563Z,23.74
2019-02-24T15:31:31.197Z,23.86
2019-02-24T15:33:58.646Z,23.90
2019-02-24T15:36:26.919Z,23.91
2019-02-24T15:38:54.485Z,23.87
2019-02-24T15:41:29.469Z,23.82
2019-02-24T15:43:51.223Z,23.79
2019-02-24T15:46:19.004Z,23.73
2019-02-24T15:48:46.559Z,23.66
2019-02-24T15:51:14.070Z,23.62
2019-02-24T15:53:42.326Z,23.61
2019-02-24T15:56:09.564Z,23.60
2019-02-24T15:58:37.316Z,23.50
2019-02-24T16:01:05.133Z,23.45
2019-02-24T16:03:33.149Z,23.40
2019-02-24T16:06:00.658Z,23.29
2019-02-24T16:08:28.237Z,23.26
2019-02-24T16:10:55.511Z,23.24
2019-02-24T16:13:22.872Z,23.18
2019-02-24T16:15:50.623Z,23.18
2019-02-24T16:18:18.308Z,23.13
2019-02-24T16:20:46.253Z,23.02
2019-02-24T16:23:14.361Z,23.02
2019-02-24T16:25:42.618Z,22.99
2019-02-24T16:28:10.051Z,22.93
2019-02-24T16:30:37.223Z,22.82
2019-02-24T16:33:10.502Z,22.82
2019-02-24T16:35:35.308Z,22.67
2019-02-24T16:38:02.625Z,22.64
2019-02-24T16:41:31.703Z,22.58
2019-02-24T16:43:59.331Z,22.51
2019-02-24T16:46:28.530Z,22.41
2019-02-24T16:48:56.389Z,22.35
2019-02-24T16:51:24.041Z,22.31
2019-02-24T16:53:51.179Z,22.22
2019-02-24T16:56:18.692Z,22.17
2019-02-24T16:58:45.855Z,22.13
2019-02-24T17:01:13.251Z,22.06
2019-02-24T17:03:40.381Z,21.94
2019-02-24T17:06:07.617Z,21.85
2019-02-24T17:08:34.759Z,21.80
2019-02-24T17:11:07.378Z,21.79
2019-02-24T17:13:32.197Z,21.82
2019-02-24T17:15:59.626Z,21.88
2019-02-24T17:18:29.001Z,21.92
2019-02-24T17:20:56.686Z,21.98
2019-02-24T17:23:23.596Z,22.01
2019-02-24T17:25:53.157Z,22.03
2019-02-24T17:28:21.115Z,22.11
2019-02-24T17:30:48.754Z,22.11
2019-02-24T17:33:16.155Z,22.15
2019-02-24T17:35:43.859Z,22.12
2019-02-24T17:38:11.641Z,22.10
2019-02-24T17:40:39.397Z,22.09
2019-02-24T17:43:07.369Z,22.09
2019-02-24T17:45:35.569Z,22.13
2019-02-24T17:48:02.951Z,22.14
2019-02-24T17:50:30.125Z,22.15
2019-02-24T17:52:57.253Z,22.13
2019-02-24T17:55:24.668Z,22.15
2019-02-24T17:57:51.789Z,22.21
2019-02-24T18:00:24.788Z,22.29
2019-02-24T18:02:51.984Z,22.26
2019-02-24T18:05:19.707Z,22.23
2019-02-24T18:07:46.843Z,22.23
2019-02-24T18:10:14.818Z,22.22
2019-02-24T18:12:42.678Z,22.22
2019-02-24T18:15:10.332Z,22.22
2019-02-24T18:17:37.826Z,22.21
2019-02-24T18:20:06.652Z,22.27
2019-02-24T18:22:33.995Z,22.24
2019-02-24T18:25:03.394Z,22.31
2019-02-24T18:27:31.415Z,22.28
2019-02-24T18:29:58.652Z,22.32
2019-02-24T18:32:25.782Z,22.39
2019-02-24T18:34:52.919Z,22.37
2019-02-24T18:37:20.155Z,22.36
2019-02-24T18:39:47.850Z,22.37
2019-02-24T18:42:15.327Z,22.40
2019-02-24T18:44:43.223Z,22.39
2019-02-24T18:47:10.618Z,22.47
2019-02-24T18:49:38.119Z,22.46
2019-02-24T18:52:05.518Z,22.46
2019-02-24T18:54:34.911Z,22.43
2019-02-24T18:57:01.917Z,22.42
2019-02-24T18:59:29.478Z,22.41
2019-02-24T19:01:56.912Z,22.39
2019-02-24T19:04:24.471Z,22.39
2019-02-24T19:06:52.134Z,22.37
2019-02-24T19:09:19.377Z,22.36
2019-02-24T19:11:47.157Z,22.34
2019-02-24T19:14:14.922Z,22.34
2019-02-24T19:16:42.045Z,22.31
2019-02-24T19:19:09.593Z,22.43
2019-02-24T19:21:36.759Z,22.42
2019-02-24T19:24:03.879Z,22.42
2019-02-24T19:26:31.082Z,22.45
2019-02-24T19:28:59.677Z,22.49
2019-02-24T19:31:26.782Z,22.48
2019-02-24T19:33:54.460Z,22.47
2019-02-24T19:36:22.333Z,22.43
2019-02-24T19:38:49.872Z,22.44
2019-02-24T19:41:17.482Z,22.44
2019-02-24T19:43:44.743Z,22.41
2019-02-24T19:46:12.789Z,22.40
2019-02-24T19:48:42.185Z,22.40
2019-02-24T19:51:09.059Z,22.45
2019-02-24T19:53:36.437Z,22.44
2019-02-24T19:56:04.197Z,22.42
2019-02-24T19:58:31.372Z,22.45
2019-02-24T20:00:58.803Z,22.45
2019-02-24T20:03:26.344Z,22.47
2019-02-24T20:05:53.496Z,22.47
2019-02-24T20:08:50.468Z,22.55
2019-02-24T20:11:17.987Z,22.49
2019-02-24T20:13:45.704Z,22.51
2019-02-24T20:16:16.088Z,22.51
2019-02-24T20:18:43.315Z,22.56
2019-02-24T20:21:10.392Z,22.53
2019-02-24T20:23:37.884Z,22.57
2019-02-24T20:26:04.997Z,22.57
2019-02-24T20:28:32.938Z,22.67
2019-02-24T20:31:00.184Z,22.69
2019-02-24T20:33:27.829Z,22.77
2019-02-24T20:35:54.929Z,22.77
2019-02-24T20:38:22.528Z,22.81
2019-02-24T20:40:49.800Z,22.80
2019-02-24T20:43:17.639Z,22.79
2019-02-24T20:45:45.072Z,22.79
2019-02-24T20:48:12.337Z,22.76
2019-02-24T20:50:39.536Z,22.76
2019-02-24T20:53:07.563Z,22.77
2019-02-24T20:55:35.340Z,22.75
2019-02-24T20:58:02.510Z,22.76
2019-02-24T21:00:33.831Z,22.73
2019-02-24T21:03:02.472Z,22.72
2019-02-24T21:05:30.197Z,22.68
2019-02-24T21:07:57.660Z,22.81
2019-02-24T21:10:24.943Z,22.77
2019-02-24T21:12:52.439Z,22.80
2019-02-24T21:15:21.143Z,22.79
2019-02-24T21:17:50.068Z,22.85
2019-02-24T21:20:20.393Z,22.89
2019-02-24T21:22:48.219Z,22.86
2019-02-24T21:25:15.736Z,22.82
2019-02-24T21:27:43.053Z,22.88
2019-02-24T21:30:13.285Z,22.90
2019-02-24T21:32:41.239Z,22.94
2019-02-24T21:35:08.779Z,22.97
2019-02-24T21:37:37.486Z,23.00
2019-02-24T21:40:05.517Z,22.95
2019-02-24T21:42:33.079Z,22.98
2019-02-24T21:45:01.492Z,22.89
2019-02-24T21:49:49.426Z,23.02
2019-02-24T21:52:16.556Z,22.94
2019-02-24T21:54:43.709Z,22.98
2019-02-24T21:57:11.347Z,22.92
2019-02-24T21:59:39.292Z,22.91
2019-02-24T22:02:07.297Z,22.91
2019-02-24T22:04:34.866Z,22.91
2019-02-24T22:07:02.227Z,22.90
2019-02-24T22:09:29.671Z,22.88
2019-02-24T22:11:56.940Z,22.86
2019-02-24T22:14:24.085Z,22.87
2019-02-24T22:16:51.944Z,22.87
2019-02-24T22:19:19.391Z,22.87
2019-02-24T22:21:46.854Z,22.85
2019-02-24T22:24:14.672Z,22.83
2019-02-24T22:26:42.087Z,22.79
2019-02-24T22:29:10.070Z,22.79
2019-02-24T22:31:37.503Z,22.80
2019-02-24T22:34:05.799Z,22.80
2019-02-24T22:36:33.662Z,22.75
2019-02-24T22:39:01.582Z,22.75
2019-02-24T22:41:28.753Z,22.76
2019-02-24T22:44:56.770Z,22.88
2019-02-24T22:47:24.386Z,22.87
2019-02-24T22:49:51.781Z,23.02
2019-02-24T22:52:18.959Z,22.94
2019-02-24T22:54:46.462Z,22.88
2019-02-24T22:57:13.999Z,22.90
2019-02-24T22:59:42.281Z,22.95
2019-02-24T23:02:09.501Z,22.92
2019-02-24T23:04:36.921Z,22.99
2019-02-24T23:07:04.147Z,22.99
2019-02-24T23:09:31.427Z,23.04
2019-02-24T23:11:58.919Z,22.97
2019-02-24T23:14:26.916Z,22.96
2019-02-24T23:16:55.207Z,22.94
2019-02-24T23:19:23.324Z,22.92
2019-02-24T23:21:50.564Z,23.00
2019-02-24T23:24:17.791Z,23.01
2019-02-24T23:26:44.973Z,23.07
2019-02-24T23:29:12.145Z,23.10
2019-02-24T23:31:39.610Z,23.03
2019-02-24T23:34:07.483Z,23.03
2019-02-24T23:39:03.540Z,23.02
2019-02-24T23:41:31.848Z,23.02
2019-02-24T23:44:00.098Z,23.10
2019-02-24T23:46:29.439Z,23.14
2019-02-24T23:48:59.005Z,23.12
2019-02-24T23:51:26.463Z,23.05
2019-02-24T23:56:22.466Z,23.01
2019-02-24T23:58:50.721Z,22.97
